sensor_id;sensor_type;location;lat;lon;timestamp;pressure;altitude;pressure_sealevel;temperature;humidity
35507;BME280;36461;52.018;21.036;2023-06-04T00:00:56;101036.95;;;5.82;69.31
35507;BME280;36461;52.018;21.036;2023-06-04T00:03:46;101037.83;;;5.77;69.37
35507;BME280;36461;52.018;21.036;2023-06-04T00:06:14;101034.41;;;5.73;69.56
35507;BME280;36461;52.018;21.036;2023-06-04T00:08:43;101033.38;;;5.70;69.55
35507;BME280;36461;52.018;21.036;2023-06-04T00:11:11;101031.84;;;5.67;69.71
35507;BME280;36461;52.018;21.036;2023-06-04T00:13:39;101033.39;;;5.63;69.81
35507;BME280;36461;52.018;21.036;2023-06-04T00:16:07;101033.74;;;5.58;69.84
35507;BME280;36461;52.018;21.036;2023-06-04T00:18:35;101036.65;;;5.53;70.24
35507;BME280;36461;52.018;21.036;2023-06-04T00:21:04;101028.77;;;5.51;70.34
35507;BME280;36461;52.018;21.036;2023-06-04T00:23:32;101030.15;;;5.48;70.15
35507;BME280;36461;52.018;21.036;2023-06-04T00:26:01;101028.43;;;5.46;70.32
35507;BME280;36461;52.018;21.036;2023-06-04T00:28:29;101025.86;;;5.46;70.47
35507;BME280;36461;52.018;21.036;2023-06-04T00:30:57;101029.81;;;5.46;70.45
35507;BME280;36461;52.018;21.036;2023-06-04T00:33:25;101028.25;;;5.44;70.73
35507;BME280;36461;52.018;21.036;2023-06-04T00:35:54;101023.28;;;5.44;70.78
35507;BME280;36461;52.018;21.036;2023-06-04T00:38:22;101022.25;;;5.42;70.83
35507;BME280;36461;52.018;21.036;2023-06-04T00:40:50;101019.66;;;5.40;71.05
35507;BME280;36461;52.018;21.036;2023-06-04T00:43:18;101022.94;;;5.37;70.88
35507;BME280;36461;52.018;21.036;2023-06-04T00:45:47;101025.34;;;5.33;71.07
35507;BME280;36461;52.018;21.036;2023-06-04T00:48:15;101025.35;;;5.29;71.06
35507;BME280;36461;52.018;21.036;2023-06-04T00:50:43;101023.97;;;5.23;71.30
35507;BME280;36461;52.018;21.036;2023-06-04T00:53:11;101030.84;;;5.18;71.42
35507;BME280;36461;52.018;21.036;2023-06-04T00:55:39;101025.86;;;5.14;71.60
35507;BME280;36461;52.018;21.036;2023-06-04T00:58:08;101026.71;;;5.12;71.88
35507;BME280;36461;52.018;21.036;2023-06-04T01:00:37;101025.16;;;5.08;71.85
35507;BME280;36461;52.018;21.036;2023-06-04T01:03:17;101025.69;;;5.04;71.55
35507;BME280;36461;52.018;21.036;2023-06-04T01:08:37;101018.30;;;5.00;72.30
35507;BME280;36461;52.018;21.036;2023-06-04T01:11:05;101023.44;;;4.98;72.05
35507;BME280;36461;52.018;21.036;2023-06-04T01:13:34;101022.08;;;4.95;71.92
35507;BME280;36461;52.018;21.036;2023-06-04T01:16:02;101022.58;;;4.92;72.21
35507;BME280;36461;52.018;21.036;2023-06-04T01:18:34;101022.58;;;4.91;72.45
35507;BME280;36461;52.018;21.036;2023-06-04T01:21:08;101022.58;;;4.89;72.36
35507;BME280;36461;52.018;21.036;2023-06-04T01:23:40;101024.80;;;4.88;72.71
35507;BME280;36461;52.018;21.036;2023-06-04T01:26:11;101027.73;;;4.87;72.69
35507;BME280;36461;52.018;21.036;2023-06-04T01:28:40;101029.09;;;4.85;72.65
35507;BME280;36461;52.018;21.036;2023-06-04T01:31:10;101028.04;;;4.83;72.66
35507;BME280;36461;52.018;21.036;2023-06-04T01:33:40;101030.27;;;4.80;72.92
35507;BME280;36461;52.018;21.036;2023-06-04T01:36:08;101026.49;;;4.77;72.91
35507;BME280;36461;52.018;21.036;2023-06-04T01:38:38;101031.30;;;4.75;72.88
35507;BME280;36461;52.018;21.036;2023-06-04T01:41:06;101025.98;;;4.72;72.87
35507;BME280;36461;52.018;21.036;2023-06-04T01:43:35;101025.79;;;4.67;72.97
35507;BME280;36461;52.018;21.036;2023-06-04T01:46:03;101022.86;;;4.64;73.14
35507;BME280;36461;52.018;21.036;2023-06-04T01:48:33;101023.71;;;4.59;73.06
35507;BME280;36461;52.018;21.036;2023-06-04T01:51:02;101022.50;;;4.55;73.22
35507;BME280;36461;52.018;21.036;2023-06-04T01:53:31;101020.42;;;4.52;73.22
35507;BME280;36461;52.018;21.036;2023-06-04T01:55:59;101020.44;;;4.50;73.47
35507;BME280;36461;52.018;21.036;2023-06-04T01:58:27;101019.90;;;4.48;73.59
35507;BME280;36461;52.018;21.036;2023-06-04T02:00:57;101017.34;;;4.46;73.67
35507;BME280;36461;52.018;21.036;2023-06-04T02:03:28;101019.39;;;4.46;73.80
35507;BME280;36461;52.018;21.036;2023-06-04T02:06:00;101017.85;;;4.47;73.95
35507;BME280;36461;52.018;21.036;2023-06-04T02:08:28;101015.28;;;4.47;73.84
35507;BME280;36461;52.018;21.036;2023-06-04T02:10:58;101015.95;;;4.45;73.97
35507;BME280;36461;52.018;21.036;2023-06-04T02:13:26;101013.38;;;4.44;73.93
35507;BME280;36461;52.018;21.036;2023-06-04T02:15:55;101010.63;;;4.40;74.32
35507;BME280;36461;52.018;21.036;2023-06-04T02:18:23;101012.16;;;4.39;74.28
35507;BME280;36461;52.018;21.036;2023-06-04T02:20:52;101008.56;;;4.35;74.30
35507;BME280;36461;52.018;21.036;2023-06-04T02:23:21;101011.97;;;4.33;74.31
35507;BME280;36461;52.018;21.036;2023-06-04T02:25:49;101011.63;;;4.30;74.46
35507;BME280;36461;52.018;21.036;2023-06-04T02:28:18;101011.78;;;4.27;74.37
35507;BME280;36461;52.018;21.036;2023-06-04T02:30:46;101009.71;;;4.25;74.61
35507;BME280;36461;52.018;21.036;2023-06-04T02:33:15;101010.58;;;4.27;74.66
35507;BME280;36461;52.018;21.036;2023-06-04T02:35:44;101013.48;;;4.27;74.55
35507;BME280;36461;52.018;21.036;2023-06-04T02:38:12;101014.88;;;4.27;74.65
35507;BME280;36461;52.018;21.036;2023-06-04T02:40:42;101014.69;;;4.27;74.62
35507;BME280;36461;52.018;21.036;2023-06-04T02:43:11;101014.35;;;4.28;74.91
35507;BME280;36461;52.018;21.036;2023-06-04T02:45:39;101014.36;;;4.29;74.93
35507;BME280;36461;52.018;21.036;2023-06-04T02:48:07;101014.02;;;4.32;74.91
35507;BME280;36461;52.018;21.036;2023-06-04T02:50:36;101016.96;;;4.35;75.17
35507;BME280;36461;52.018;21.036;2023-06-04T02:53:04;101016.63;;;4.37;74.93
35507;BME280;36461;52.018;21.036;2023-06-04T02:55:32;101017.66;;;4.40;75.29
35507;BME280;36461;52.018;21.036;2023-06-04T02:58:00;101016.63;;;4.42;74.92
35507;BME280;36461;52.018;21.036;2023-06-04T03:00:29;101020.24;;;4.46;74.93
35507;BME280;36461;52.018;21.036;2023-06-04T03:02:58;101021.98;;;4.47;74.97
35507;BME280;36461;52.018;21.036;2023-06-04T03:05:30;101021.27;;;4.47;74.61
35507;BME280;36461;52.018;21.036;2023-06-04T03:08:01;101025.22;;;4.47;74.87
35507;BME280;36461;52.018;21.036;2023-06-04T03:10:31;101021.45;;;4.49;75.23
35507;BME280;36461;52.018;21.036;2023-06-04T03:13:00;101020.08;;;4.49;75.30
35507;BME280;36461;52.018;21.036;2023-06-04T03:15:28;101023.18;;;4.50;74.89
35507;BME280;36461;52.018;21.036;2023-06-04T03:17:56;101024.55;;;4.51;74.88
35507;BME280;36461;52.018;21.036;2023-06-04T03:20:25;101025.75;;;4.52;74.83
35507;BME280;36461;52.018;21.036;2023-06-04T03:22:53;101024.38;;;4.54;75.02
35507;BME280;36461;52.018;21.036;2023-06-04T03:25:22;101023.37;;;4.59;75.05
35507;BME280;36461;52.018;21.036;2023-06-04T03:27:50;101027.15;;;4.63;75.29
35507;BME280;36461;52.018;21.036;2023-06-04T03:30:19;101024.77;;;4.66;75.41
35507;BME280;36461;52.018;21.036;2023-06-04T03:32:55;101024.08;;;4.71;75.36
35507;BME280;36461;52.018;21.036;2023-06-04T03:35:24;101021.85;;;4.75;75.41
35507;BME280;36461;52.018;21.036;2023-06-04T03:37:52;101025.13;;;4.79;75.48
35507;BME280;36461;52.018;21.036;2023-06-04T03:40:21;101028.04;;;4.84;75.61
35507;BME280;36461;52.018;21.036;2023-06-04T03:42:49;101031.15;;;4.86;75.56
35507;BME280;36461;52.018;21.036;2023-06-04T03:45:19;101024.98;;;4.88;75.85
35507;BME280;36461;52.018;21.036;2023-06-04T03:47:48;101026.01;;;4.92;75.96
35507;BME280;36461;52.018;21.036;2023-06-04T03:50:20;101026.19;;;4.95;75.59
35507;BME280;36461;52.018;21.036;2023-06-04T03:52:49;101025.67;;;4.97;75.85
35507;BME280;36461;52.018;21.036;2023-06-04T03:55:18;101025.33;;;5.00;76.14
35507;BME280;36461;52.018;21.036;2023-06-04T03:57:48;101023.63;;;5.05;76.03
35507;BME280;36461;52.018;21.036;2023-06-04T04:00:17;101024.84;;;5.10;76.17
35507;BME280;36461;52.018;21.036;2023-06-04T04:02:48;101021.40;;;5.16;76.03
35507;BME280;36461;52.018;21.036;2023-06-04T04:05:21;101019.85;;;5.25;76.41
35507;BME280;36461;52.018;21.036;2023-06-04T04:07:50;101017.45;;;5.33;76.31
35507;BME280;36461;52.018;21.036;2023-06-04T04:10:21;101018.98;;;5.41;76.39
35507;BME280;36461;52.018;21.036;2023-06-04T04:12:49;101023.10;;;5.50;76.26
35507;BME280;36461;52.018;21.036;2023-06-04T04:15:20;101023.09;;;5.62;76.66
35507;BME280;36461;52.018;21.036;2023-06-04T04:17:49;101025.09;;;5.87;76.47
35507;BME280;36461;52.018;21.036;2023-06-04T04:20:18;101026.49;;;6.37;77.05
35507;BME280;36461;52.018;21.036;2023-06-04T04:22:51;101020.61;;;7.91;78.88
35507;BME280;36461;52.018;21.036;2023-06-04T04:25:19;101014.04;;;10.41;79.47
35507;BME280;36461;52.018;21.036;2023-06-04T04:27:48;101008.98;;;12.94;76.54
35507;BME280;36461;52.018;21.036;2023-06-04T04:30:16;101006.43;;;15.01;72.61
35507;BME280;36461;52.018;21.036;2023-06-04T04:32:47;101002.13;;;16.31;68.02
35507;BME280;36461;52.018;21.036;2023-06-04T04:35:24;101004.17;;;15.64;62.79
35507;BME280;36461;52.018;21.036;2023-06-04T04:37:55;101008.02;;;14.34;60.83
35507;BME280;36461;52.018;21.036;2023-06-04T04:40:24;101005.48;;;13.17;60.48
35507;BME280;36461;52.018;21.036;2023-06-04T04:42:54;101012.41;;;12.22;60.70
35507;BME280;36461;52.018;21.036;2023-06-04T04:45:22;101010.54;;;11.50;61.33
35507;BME280;36461;52.018;21.036;2023-06-04T04:47:51;101010.49;;;11.03;62.20
35507;BME280;36461;52.018;21.036;2023-06-04T04:50:20;101002.51;;;11.58;64.09
35507;BME280;36461;52.018;21.036;2023-06-04T04:52:49;101008.71;;;12.06;63.25
35507;BME280;36461;52.018;21.036;2023-06-04T04:55:17;101006.56;;;11.69;62.59
35507;BME280;36461;52.018;21.036;2023-06-04T04:57:46;101010.23;;;11.28;62.45
35507;BME280;36461;52.018;21.036;2023-06-04T05:00:15;101018.11;;;11.03;63.15
35507;BME280;36461;52.018;21.036;2023-06-04T05:02:44;101019.38;;;11.00;63.63
35507;BME280;36461;52.018;21.036;2023-06-04T05:05:13;101021.48;;;10.70;63.72
35507;BME280;36461;52.018;21.036;2023-06-04T05:07:42;101022.90;;;10.45;64.08
35507;BME280;36461;52.018;21.036;2023-06-04T05:10:10;101023.70;;;10.39;64.60
35507;BME280;36461;52.018;21.036;2023-06-04T05:12:39;101022.17;;;10.37;65.11
35507;BME280;36461;52.018;21.036;2023-06-04T05:15:08;101019.45;;;10.26;65.12
35507;BME280;36461;52.018;21.036;2023-06-04T05:17:41;101022.77;;;10.15;65.66
35507;BME280;36461;52.018;21.036;2023-06-04T05:20:10;101021.77;;;10.14;66.22
35507;BME280;36461;52.018;21.036;2023-06-04T05:22:41;101021.57;;;10.06;66.30
35507;BME280;36461;52.018;21.036;2023-06-04T05:25:11;101016.89;;;10.06;66.42
35507;BME280;36461;52.018;21.036;2023-06-04T05:27:40;101016.21;;;10.05;66.58
35507;BME280;36461;52.018;21.036;2023-06-04T05:30:10;101009.65;;;10.05;66.76
35507;BME280;36461;52.018;21.036;2023-06-04T05:32:39;101013.04;;;10.09;66.88
35507;BME280;36461;52.018;21.036;2023-06-04T05:35:11;101009.17;;;10.12;67.12
35507;BME280;36461;52.018;21.036;2023-06-04T05:37:40;101007.09;;;10.13;67.48
35507;BME280;36461;52.018;21.036;2023-06-04T05:40:11;101004.79;;;10.15;67.18
35507;BME280;36461;52.018;21.036;2023-06-04T05:42:40;101005.18;;;10.21;67.64
35507;BME280;36461;52.018;21.036;2023-06-04T05:45:09;101007.98;;;10.28;67.81
35507;BME280;36461;52.018;21.036;2023-06-04T05:47:38;101004.20;;;10.36;67.78
35507;BME280;36461;52.018;21.036;2023-06-04T05:50:06;101005.98;;;10.42;67.88
35507;BME280;36461;52.018;21.036;2023-06-04T05:52:35;101007.75;;;10.49;67.73
35507;BME280;36461;52.018;21.036;2023-06-04T05:55:08;101005.50;;;10.56;67.58
35507;BME280;36461;52.018;21.036;2023-06-04T05:57:38;101000.32;;;10.64;67.99
35507;BME280;36461;52.018;21.036;2023-06-04T06:00:07;101000.01;;;10.70;68.30
35507;BME280;36461;52.018;21.036;2023-06-04T06:02:42;101002.13;;;10.75;67.90
35507;BME280;36461;52.018;21.036;2023-06-04T06:05:21;101004.75;;;10.81;67.75
35507;BME280;36461;52.018;21.036;2023-06-04T06:07:50;101012.45;;;10.86;68.12
35507;BME280;36461;52.018;21.036;2023-06-04T06:10:18;101014.18;;;10.94;68.27
35507;BME280;36461;52.018;21.036;2023-06-04T06:12:47;101012.19;;;11.04;68.11
35507;BME280;36461;52.018;21.036;2023-06-04T06:15:15;101012.34;;;11.19;67.75
35507;BME280;36461;52.018;21.036;2023-06-04T06:17:46;101011.40;;;11.36;67.85
35507;BME280;36461;52.018;21.036;2023-06-04T06:20:15;101008.10;;;11.50;67.76
35507;BME280;36461;52.018;21.036;2023-06-04T06:22:47;101005.56;;;11.61;67.65
35507;BME280;36461;52.018;21.036;2023-06-04T06:25:17;101009.45;;;11.71;67.09
35507;BME280;36461;52.018;21.036;2023-06-04T06:27:54;101018.13;;;11.84;66.47
35507;BME280;36461;52.018;21.036;2023-06-04T06:30:23;101018.02;;;11.95;65.11
35507;BME280;36461;52.018;21.036;2023-06-04T06:32:51;101018.67;;;12.10;65.71
35507;BME280;36461;52.018;21.036;2023-06-04T06:35:23;101015.73;;;12.21;65.36
35507;BME280;36461;52.018;21.036;2023-06-04T06:37:51;101019.74;;;12.33;64.65
35507;BME280;36461;52.018;21.036;2023-06-04T06:40:20;101020.80;;;12.50;63.89
35507;BME280;36461;52.018;21.036;2023-06-04T06:42:51;101015.34;;;12.70;62.51
35507;BME280;36461;52.018;21.036;2023-06-04T06:45:19;101015.55;;;12.85;61.97
35507;BME280;36461;52.018;21.036;2023-06-04T06:47:48;101012.56;;;13.03;62.44
35507;BME280;36461;52.018;21.036;2023-06-04T06:50:16;101017.00;;;13.16;61.78
35507;BME280;36461;52.018;21.036;2023-06-04T06:52:44;101012.63;;;13.27;62.68
35507;BME280;36461;52.018;21.036;2023-06-04T06:55:13;101013.73;;;13.37;61.85
35507;BME280;36461;52.018;21.036;2023-06-04T06:57:41;101015.18;;;13.46;60.73
35507;BME280;36461;52.018;21.036;2023-06-04T07:00:10;101015.15;;;13.56;60.18
35507;BME280;36461;52.018;21.036;2023-06-04T07:02:39;101016.02;;;13.67;59.65
35507;BME280;36461;52.018;21.036;2023-06-04T07:05:08;101019.05;;;13.79;61.58
35507;BME280;36461;52.018;21.036;2023-06-04T07:07:36;101014.80;;;13.86;60.11
35507;BME280;36461;52.018;21.036;2023-06-04T07:10:05;101019.36;;;13.95;59.36
35507;BME280;36461;52.018;21.036;2023-06-04T07:12:33;101018.58;;;14.03;57.32
35507;BME280;36461;52.018;21.036;2023-06-04T07:15:02;101020.05;;;14.10;56.06
35507;BME280;36461;52.018;21.036;2023-06-04T07:17:30;101020.99;;;14.18;55.49
35507;BME280;36461;52.018;21.036;2023-06-04T07:19:59;101024.79;;;14.28;55.12
35507;BME280;36461;52.018;21.036;2023-06-04T07:22:28;101019.73;;;14.37;54.32
35507;BME280;36461;52.018;21.036;2023-06-04T07:24:56;101016.93;;;14.42;53.47
35507;BME280;36461;52.018;21.036;2023-06-04T07:27:25;101021.42;;;14.48;52.84
35507;BME280;36461;52.018;21.036;2023-06-04T07:29:54;101023.90;;;14.61;53.69
35507;BME280;36461;52.018;21.036;2023-06-04T07:32:22;101018.95;;;14.72;54.22
35507;BME280;36461;52.018;21.036;2023-06-04T07:34:50;101020.47;;;14.78;52.26
35507;BME280;36461;52.018;21.036;2023-06-04T07:37:18;101018.40;;;14.86;52.80
35507;BME280;36461;52.018;21.036;2023-06-04T07:39:46;101017.11;;;14.92;51.72
35507;BME280;36461;52.018;21.036;2023-06-04T07:42:14;101020.21;;;15.02;51.32
35507;BME280;36461;52.018;21.036;2023-06-04T07:44:42;101024.16;;;15.12;50.92
35507;BME280;36461;52.018;21.036;2023-06-04T07:47:10;101021.67;;;15.21;50.51
35507;BME280;36461;52.018;21.036;2023-06-04T07:49:38;101020.11;;;15.30;50.00
35507;BME280;36461;52.018;21.036;2023-06-04T07:52:27;101022.23;;;15.38;48.86
35507;BME280;36461;52.018;21.036;2023-06-04T07:54:55;101029.42;;;15.45;48.00
35507;BME280;36461;52.018;21.036;2023-06-04T07:57:23;101028.84;;;15.51;47.82
35507;BME280;36461;52.018;21.036;2023-06-04T07:59:52;101030.77;;;15.54;47.28
35507;BME280;36461;52.018;21.036;2023-06-04T08:02:20;101028.89;;;15.57;47.10
35507;BME280;36461;52.018;21.036;2023-06-04T08:04:48;101025.06;;;15.62;46.58
35507;BME280;36461;52.018;21.036;2023-06-04T08:07:17;101018.95;;;15.66;46.00
35507;BME280;36461;52.018;21.036;2023-06-04T08:09:45;101016.70;;;15.74;45.84
35507;BME280;36461;52.018;21.036;2023-06-04T08:12:13;101012.72;;;15.81;45.46
35507;BME280;36461;52.018;21.036;2023-06-04T08:14:44;101017.09;;;15.89;45.34
35507;BME280;36461;52.018;21.036;2023-06-04T08:17:13;101016.68;;;15.94;44.64
35507;BME280;36461;52.018;21.036;2023-06-04T08:19:41;101016.84;;;15.99;44.19
35507;BME280;36461;52.018;21.036;2023-06-04T08:22:09;101011.80;;;16.02;44.03
35507;BME280;36461;52.018;21.036;2023-06-04T08:24:39;101010.03;;;16.07;44.11
35507;BME280;36461;52.018;21.036;2023-06-04T08:27:08;101010.54;;;16.15;44.06
35507;BME280;36461;52.018;21.036;2023-06-04T08:29:36;101012.83;;;16.22;43.70
35507;BME280;36461;52.018;21.036;2023-06-04T08:32:04;101008.98;;;16.29;42.93
35507;BME280;36461;52.018;21.036;2023-06-04T08:34:34;101009.80;;;16.35;43.21
35507;BME280;36461;52.018;21.036;2023-06-04T08:37:02;101014.81;;;16.40;42.64
35507;BME280;36461;52.018;21.036;2023-06-04T08:39:30;101009.65;;;16.41;42.29
35507;BME280;36461;52.018;21.036;2023-06-04T08:42:04;101007.28;;;16.43;42.05
35507;BME280;36461;52.018;21.036;2023-06-04T08:44:36;101003.91;;;16.49;42.33
35507;BME280;36461;52.018;21.036;2023-06-04T08:47:05;101001.16;;;16.55;42.08
35507;BME280;36461;52.018;21.036;2023-06-04T08:49:36;101004.77;;;16.64;42.19
35507;BME280;36461;52.018;21.036;2023-06-04T08:52:06;101003.89;;;16.71;41.75
35507;BME280;36461;52.018;21.036;2023-06-04T08:54:35;101000.10;;;16.77;41.19
35507;BME280;36461;52.018;21.036;2023-06-04T08:57:05;100996.98;;;16.84;41.28
35507;BME280;36461;52.018;21.036;2023-06-04T08:59:35;100997.27;;;16.93;40.86
35507;BME280;36461;52.018;21.036;2023-06-04T09:02:04;100994.89;;;16.99;40.79
35507;BME280;36461;52.018;21.036;2023-06-04T09:04:33;100994.37;;;17.06;40.89
35507;BME280;36461;52.018;21.036;2023-06-04T09:07:02;100992.72;;;17.15;40.52
35507;BME280;36461;52.018;21.036;2023-06-04T09:09:31;100993.30;;;17.24;40.42
35507;BME280;36461;52.018;21.036;2023-06-04T09:12:03;100994.04;;;17.30;40.15
35507;BME280;36461;52.018;21.036;2023-06-04T09:14:34;100987.52;;;17.32;40.18
35507;BME280;36461;52.018;21.036;2023-06-04T09:17:02;100986.27;;;17.35;40.57
35507;BME280;36461;52.018;21.036;2023-06-04T09:19:30;100985.61;;;17.41;40.32
35507;BME280;36461;52.018;21.036;2023-06-04T09:22:00;100983.09;;;17.49;40.38
35507;BME280;36461;52.018;21.036;2023-06-04T09:24:44;100986.67;;;17.58;39.95
35507;BME280;36461;52.018;21.036;2023-06-04T09:27:24;100988.21;;;17.66;40.25
35507;BME280;36461;52.018;21.036;2023-06-04T09:29:55;100985.09;;;17.72;40.32
35507;BME280;36461;52.018;21.036;2023-06-04T09:32:25;100982.21;;;17.73;40.01
35507;BME280;36461;52.018;21.036;2023-06-04T09:35:09;100977.05;;;17.75;39.87
35507;BME280;36461;52.018;21.036;2023-06-04T09:37:38;100980.05;;;17.81;39.88
35507;BME280;36461;52.018;21.036;2023-06-04T09:40:08;100976.39;;;17.84;39.27
35507;BME280;36461;52.018;21.036;2023-06-04T09:42:46;100977.33;;;17.86;39.58
35507;BME280;36461;52.018;21.036;2023-06-04T09:45:30;100974.11;;;17.91;39.62
35507;BME280;36461;52.018;21.036;2023-06-04T09:48:00;100974.88;;;18.00;38.91
35507;BME280;36461;52.018;21.036;2023-06-04T09:50:33;100976.58;;;18.04;38.62
35507;BME280;36461;52.018;21.036;2023-06-04T09:53:15;100972.40;;;18.07;38.39
35507;BME280;36461;52.018;21.036;2023-06-04T09:55:44;100969.51;;;18.12;38.58
35507;BME280;36461;52.018;21.036;2023-06-04T09:58:13;100970.56;;;18.15;38.06
35507;BME280;36461;52.018;21.036;2023-06-04T10:00:44;100968.89;;;18.17;37.98
35507;BME280;36461;52.018;21.036;2023-06-04T10:03:15;100968.69;;;18.23;38.00
35507;BME280;36461;52.018;21.036;2023-06-04T10:05:45;100965.62;;;18.28;37.68
35507;BME280;36461;52.018;21.036;2023-06-04T10:08:15;100964.69;;;18.30;37.63
35507;BME280;36461;52.018;21.036;2023-06-04T10:10:45;100965.84;;;18.34;37.03
35507;BME280;36461;52.018;21.036;2023-06-04T10:13:17;100961.82;;;18.34;37.15
35507;BME280;36461;52.018;21.036;2023-06-04T10:15:46;100964.32;;;18.33;37.25
35507;BME280;36461;52.018;21.036;2023-06-04T10:18:14;100960.23;;;18.34;36.89
35507;BME280;36461;52.018;21.036;2023-06-04T10:20:44;100962.88;;;18.31;36.38
35507;BME280;36461;52.018;21.036;2023-06-04T10:23:14;100963.08;;;18.30;36.58
35507;BME280;36461;52.018;21.036;2023-06-04T10:25:43;100960.70;;;18.32;36.73
35507;BME280;36461;52.018;21.036;2023-06-04T10:28:12;100959.48;;;18.41;36.70
35507;BME280;36461;52.018;21.036;2023-06-04T10:30:41;100960.59;;;18.47;36.35
35507;BME280;36461;52.018;21.036;2023-06-04T10:33:10;100956.79;;;18.42;35.93
35507;BME280;36461;52.018;21.036;2023-06-04T10:35:39;100957.42;;;18.43;36.36
35507;BME280;36461;52.018;21.036;2023-06-04T10:38:11;100953.20;;;18.50;36.69
35507;BME280;36461;52.018;21.036;2023-06-04T10:40:41;100951.29;;;18.56;36.18
35507;BME280;36461;52.018;21.036;2023-06-04T10:43:13;100946.10;;;18.55;36.43
35507;BME280;36461;52.018;21.036;2023-06-04T10:45:45;100947.09;;;18.59;36.72
35507;BME280;36461;52.018;21.036;2023-06-04T10:48:13;100948.30;;;18.66;36.50
35507;BME280;36461;52.018;21.036;2023-06-04T10:50:52;100944.75;;;18.70;36.55
35507;BME280;36461;52.018;21.036;2023-06-04T10:53:21;100939.38;;;18.74;36.39
35507;BME280;36461;52.018;21.036;2023-06-04T10:55:50;100938.05;;;18.79;36.41
35507;BME280;36461;52.018;21.036;2023-06-04T10:58:19;100934.95;;;18.82;36.40
35507;BME280;36461;52.018;21.036;2023-06-04T11:00:49;100931.88;;;18.83;36.15
35507;BME280;36461;52.018;21.036;2023-06-04T11:03:17;100922.63;;;18.82;35.96
35507;BME280;36461;52.018;21.036;2023-06-04T11:05:47;100922.53;;;18.84;35.92
35507;BME280;36461;52.018;21.036;2023-06-04T11:08:28;100926.02;;;18.87;35.98
35507;BME280;36461;52.018;21.036;2023-06-04T11:10:56;100923.23;;;18.87;35.30
35507;BME280;36461;52.018;21.036;2023-06-04T11:13:25;100913.73;;;18.91;35.80
35507;BME280;36461;52.018;21.036;2023-06-04T11:15:53;100919.90;;;19.08;36.85
35507;BME280;36461;52.018;21.036;2023-06-04T11:18:22;100921.23;;;19.21;37.06
35507;BME280;36461;52.018;21.036;2023-06-04T11:20:59;100921.48;;;19.29;35.90
35507;BME280;36461;52.018;21.036;2023-06-04T11:23:27;100920.66;;;19.31;35.50
35507;BME280;36461;52.018;21.036;2023-06-04T11:25:56;100926.05;;;19.32;35.45
35507;BME280;36461;52.018;21.036;2023-06-04T11:28:24;100926.92;;;19.38;35.71
35507;BME280;36461;52.018;21.036;2023-06-04T11:31:00;100929.20;;;19.43;35.43
35507;BME280;36461;52.018;21.036;2023-06-04T11:33:47;100928.46;;;19.47;35.62
35507;BME280;36461;52.018;21.036;2023-06-04T11:36:26;100928.63;;;19.53;35.39
35507;BME280;36461;52.018;21.036;2023-06-04T11:38:59;100925.46;;;19.56;35.38
35507;BME280;36461;52.018;21.036;2023-06-04T11:41:31;100924.94;;;19.62;35.37
35507;BME280;36461;52.018;21.036;2023-06-04T11:44:05;100926.23;;;19.69;34.95
35507;BME280;36461;52.018;21.036;2023-06-04T11:46:42;100920.67;;;19.74;34.59
35507;BME280;36461;52.018;21.036;2023-06-04T11:49:17;100919.98;;;19.80;34.39
35507;BME280;36461;52.018;21.036;2023-06-04T11:51:47;100922.42;;;19.80;34.33
35507;BME280;36461;52.018;21.036;2023-06-04T11:54:16;100922.80;;;19.79;33.98
35507;BME280;36461;52.018;21.036;2023-06-04T11:56:46;100923.88;;;19.79;34.37
35507;BME280;36461;52.018;21.036;2023-06-04T11:59:17;100921.82;;;19.81;33.93
35507;BME280;36461;52.018;21.036;2023-06-04T12:01:46;100919.59;;;19.80;33.96
35507;BME280;36461;52.018;21.036;2023-06-04T12:04:18;100917.29;;;19.81;33.91
35507;BME280;36461;52.018;21.036;2023-06-04T12:06:58;100921.69;;;19.83;34.07
35507;BME280;36461;52.018;21.036;2023-06-04T12:09:29;100919.80;;;19.88;33.84
35507;BME280;36461;52.018;21.036;2023-06-04T12:12:03;100922.78;;;19.89;33.40
35507;BME280;36461;52.018;21.036;2023-06-04T12:14:33;100914.74;;;19.88;33.68
35507;BME280;36461;52.018;21.036;2023-06-04T12:17:06;100917.33;;;19.92;33.44
35507;BME280;36461;52.018;21.036;2023-06-04T12:19:50;100914.23;;;19.93;33.23
35507;BME280;36461;52.018;21.036;2023-06-04T12:22:18;100915.27;;;19.99;33.52
35507;BME280;36461;52.018;21.036;2023-06-04T12:24:51;100912.64;;;20.08;33.77
35507;BME280;36461;52.018;21.036;2023-06-04T12:27:24;100916.71;;;20.15;33.69
35507;BME280;36461;52.018;21.036;2023-06-04T12:29:57;100915.83;;;20.18;33.24
35507;BME280;36461;52.018;21.036;2023-06-04T12:32:27;100918.25;;;20.16;33.07
35507;BME280;36461;52.018;21.036;2023-06-04T12:34:56;100916.33;;;20.16;33.14
35507;BME280;36461;52.018;21.036;2023-06-04T12:37:24;100916.67;;;20.19;32.93
35507;BME280;36461;52.018;21.036;2023-06-04T12:39:56;100918.16;;;20.23;32.90
35507;BME280;36461;52.018;21.036;2023-06-04T12:42:24;100915.22;;;20.25;32.77
35507;BME280;36461;52.018;21.036;2023-06-04T12:44:52;100916.41;;;20.28;32.99
35507;BME280;36461;52.018;21.036;2023-06-04T12:47:20;100918.39;;;20.30;32.38
35507;BME280;36461;52.018;21.036;2023-06-04T12:49:49;100913.10;;;20.28;32.13
35507;BME280;36461;52.018;21.036;2023-06-04T12:52:17;100909.79;;;20.27;32.42
35507;BME280;36461;52.018;21.036;2023-06-04T12:54:46;100910.05;;;20.32;32.53
35507;BME280;36461;52.018;21.036;2023-06-04T12:57:14;100908.36;;;20.36;32.55
35507;BME280;36461;52.018;21.036;2023-06-04T12:59:42;100907.71;;;20.41;32.73